Time;durP1;ratioP1;P1;durP2;ratioP2;P2;SDS_P1;SDS_P2;PMS_P1;PMS_P2;Temp;Humidity;BMP_temperature;BMP_pressure;BME280_temperature;BME280_humidity;BME280_pressure;Samples;Min_cycle;Max_cycle;Signal;HPM_P1;HPM_P2
2021/07/08 00:00:33;;;;;;;14.40;11.88;;;24.60;97.30;;;;;;5077893;28;20502;-84
2021/07/08 00:02:59;;;;;;;13.80;11.63;;;24.60;97.40;;;;;;5096521;28;20031;-84
2021/07/08 00:05:25;;;;;;;13.52;11.68;;;24.60;97.30;;;;;;5096188;28;20028;-85
2021/07/08 00:07:52;;;;;;;13.45;11.32;;;24.60;97.40;;;;;;5096645;28;20113;-84
2021/07/08 00:10:28;;;;;;;13.55;11.70;;;24.60;97.40;;;;;;5096262;28;20028;-84
2021/07/08 00:12:54;;;;;;;13.45;11.82;;;24.60;97.40;;;;;;5096670;28;20027;-84
2021/07/08 00:15:20;;;;;;;14.38;12.32;;;24.60;97.30;;;;;;5078024;28;20496;-86
2021/07/08 00:17:47;;;;;;;13.43;11.30;;;24.60;97.30;;;;;;5061223;28;20032;-84
2021/07/08 00:20:17;;;;;;;13.50;11.55;;;24.60;97.30;;;;;;5095800;28;20028;-85
2021/07/08 00:22:42;;;;;;;13.90;11.73;;;24.60;97.30;;;;;;5077671;28;20032;-84
2021/07/08 00:25:12;;;;;;;14.13;11.77;;;24.60;97.50;;;;;;5077946;28;20043;-84
2021/07/08 00:27:38;;;;;;;13.77;12.00;;;24.60;97.30;;;;;;5077820;28;20032;-84
2021/07/08 00:30:06;;;;;;;13.88;11.55;;;24.60;97.30;;;;;;5078106;28;20233;-84
2021/07/08 00:32:32;;;;;;;14.48;12.10;;;24.60;97.30;;;;;;5077403;28;20036;-85
2021/07/08 00:34:57;;;;;;;14.27;11.88;;;24.60;97.20;;;;;;5077746;28;20051;-84
2021/07/08 00:37:23;;;;;;;13.95;11.68;;;24.60;97.20;;;;;;5095343;28;20059;-85
2021/07/08 00:39:49;;;;;;;14.05;11.93;;;24.60;97.30;;;;;;5060696;28;20462;-84
2021/07/08 00:42:14;;;;;;;17.20;13.40;;;24.60;97.30;;;;;;5077606;28;20079;-84
2021/07/08 00:44:40;;;;;;;13.35;11.43;;;24.60;97.30;;;;;;5076734;28;20059;-85
2021/07/08 00:47:06;;;;;;;14.60;12.68;;;24.60;97.30;;;;;;5044080;28;20031;-85
2021/07/08 00:49:33;;;;;;;14.60;12.35;;;24.60;97.30;;;;;;5076880;28;20032;-85
2021/07/08 00:51:59;;;;;;;14.63;12.85;;;24.60;97.30;;;;;;5095838;28;20504;-84
2021/07/08 00:54:25;;;;;;;15.32;13.15;;;24.60;97.30;;;;;;5077888;28;20115;-84
2021/07/08 00:56:50;;;;;;;15.40;12.90;;;24.60;97.30;;;;;;5095186;28;20067;-85
2021/07/08 00:59:16;;;;;;;15.20;12.23;;;24.60;97.30;;;;;;5060450;28;20482;-84
2021/07/08 01:01:42;;;;;;;15.38;12.32;;;24.60;97.30;;;;;;5060591;28;20032;-84
2021/07/08 01:04:09;;;;;;;16.10;13.50;;;24.60;97.30;;;;;;5077032;28;20070;-85
2021/07/08 01:06:40;;;;;;;15.57;12.23;;;24.60;97.30;;;;;;5094399;28;20092;-85
2021/07/08 01:09:06;;;;;;;16.58;13.23;;;24.60;97.30;;;;;;5095213;28;20020;-85
2021/07/08 01:11:32;;;;;;;16.20;13.38;;;24.60;97.30;;;;;;5076965;28;20485;-86
2021/07/08 01:13:57;;;;;;;15.52;12.95;;;24.60;97.30;;;;;;5076761;28;20028;-84
2021/07/08 01:16:26;;;;;;;15.70;13.65;;;24.60;97.20;;;;;;5076732;28;20036;-84
2021/07/08 01:18:52;;;;;;;14.88;13.23;;;24.60;97.20;;;;;;5076383;28;20042;-85
2021/07/08 01:21:31;;;;;;;15.57;12.90;;;24.60;97.20;;;;;;5060129;28;20043;-84
2021/07/08 01:23:58;;;;;;;15.35;13.05;;;24.60;97.20;;;;;;5094687;28;20028;-84
2021/07/08 01:26:25;;;;;;;14.52;12.52;;;24.60;97.20;;;;;;5076961;28;20111;-84
2021/07/08 01:28:53;;;;;;;16.45;13.95;;;24.60;97.20;;;;;;5094509;28;20028;-85
2021/07/08 01:31:19;;;;;;;15.45;13.63;;;24.60;97.20;;;;;;5076650;28;20066;-84
2021/07/08 01:33:46;;;;;;;16.40;13.45;;;24.60;97.20;;;;;;5076420;28;20039;-85
2021/07/08 01:36:13;;;;;;;17.83;14.38;;;24.60;97.20;;;;;;5076454;28;20032;-85
2021/07/08 01:38:38;;;;;;;15.88;13.68;;;24.60;97.20;;;;;;5076499;28;20035;-85
2021/07/08 01:41:04;;;;;;;14.60;12.77;;;24.60;97.20;;;;;;5076196;28;20027;-84
2021/07/08 01:43:38;;;;;;;15.73;13.77;;;24.60;97.20;;;;;;5094469;28;20032;-84
2021/07/08 01:46:10;;;;;;;15.75;13.63;;;24.60;97.10;;;;;;5094444;28;20025;-84
2021/07/08 01:48:36;;;;;;;16.15;13.77;;;24.60;97.10;;;;;;5094042;28;20047;-84
2021/07/08 01:51:05;;;;;;;15.98;13.30;;;24.50;97.10;;;;;;5093603;28;20050;-84
2021/07/08 01:53:31;;;;;;;15.82;13.25;;;24.60;97.10;;;;;;5094271;28;20032;-84
2021/07/08 01:55:57;;;;;;;16.38;13.90;;;24.50;97.10;;;;;;5076004;28;20476;-84
2021/07/08 01:58:26;;;;;;;16.30;12.85;;;24.50;97.30;;;;;;5076030;28;20533;-84
2021/07/08 02:00:53;;;;;;;15.25;13.18;;;24.50;97.00;;;;;;5076092;28;20101;-84
2021/07/08 02:03:19;;;;;;;15.15;13.27;;;24.60;97.00;;;;;;5094106;28;20050;-84
2021/07/08 02:05:45;;;;;;;14.80;13.07;;;24.60;97.00;;;;;;5075287;28;20035;-85
2021/07/08 02:08:11;;;;;;;14.52;12.73;;;24.60;97.00;;;;;;5075784;28;20488;-84
2021/07/08 02:10:37;;;;;;;15.98;12.57;;;24.60;97.00;;;;;;5093607;28;20078;-83
2021/07/08 02:13:04;;;;;;;15.35;12.70;;;24.50;97.00;;;;;;5075333;28;20034;-84
2021/07/08 02:15:30;;;;;;;14.25;12.00;;;24.60;97.00;;;;;;5094124;28;20028;-84
2021/07/08 02:17:55;;;;;;;14.77;12.23;;;24.50;97.00;;;;;;5075417;28;20028;-84
2021/07/08 02:20:21;;;;;;;14.65;12.23;;;24.60;97.00;;;;;;5058940;28;20088;-84
2021/07/08 02:22:47;;;;;;;15.35;12.93;;;24.60;97.00;;;;;;5075047;28;20128;-83
2021/07/08 02:25:13;;;;;;;14.70;11.82;;;24.50;96.90;;;;;;5093479;28;20111;-84
2021/07/08 02:27:40;;;;;;;14.32;11.95;;;24.50;96.90;;;;;;5093753;28;20032;-84
2021/07/08 02:30:12;;;;;;;13.35;11.82;;;24.50;96.90;;;;;;5058665;28;20119;-84
2021/07/08 02:32:39;;;;;;;13.55;11.68;;;24.50;96.90;;;;;;5093613;28;20020;-84
2021/07/08 02:35:06;;;;;;;14.50;12.50;;;24.50;96.90;;;;;;5075223;28;20058;-84
2021/07/08 02:37:32;;;;;;;14.10;11.93;;;24.50;96.90;;;;;;5093436;28;20489;-84
2021/07/08 02:39:58;;;;;;;16.05;12.43;;;24.60;96.90;;;;;;5092948;28;20512;-84
2021/07/08 02:42:24;;;;;;;13.25;11.80;;;24.60;96.90;;;;;;5093607;28;20016;-83
2021/07/08 02:44:49;;;;;;;12.13;10.60;;;24.50;96.90;;;;;;5075013;28;20082;-83
2021/07/08 02:47:15;;;;;;;13.93;11.57;;;24.50;96.80;;;;;;5075481;28;20036;-84
2021/07/08 02:49:41;;;;;;;13.80;12.07;;;24.50;96.80;;;;;;5093375;28;20028;-84
2021/07/08 02:52:06;;;;;;;12.85;11.20;;;24.60;96.90;;;;;;5075024;28;20031;-84
2021/07/08 02:54:33;;;;;;;13.00;11.57;;;24.50;96.80;;;;;;5058432;28;20400;-84
2021/07/08 02:56:59;;;;;;;14.35;11.60;;;24.50;96.80;;;;;;5092965;28;20032;-84
2021/07/08 02:59:25;;;;;;;13.13;11.18;;;24.60;96.80;;;;;;5058652;28;20043;-83
2021/07/08 03:01:50;;;;;;;13.43;11.23;;;24.50;96.80;;;;;;5092907;28;20040;-84
2021/07/08 03:04:16;;;;;;;12.23;10.48;;;24.50;96.80;;;;;;5058229;28;20036;-84
2021/07/08 03:06:41;;;;;;;11.57;10.27;;;24.50;96.80;;;;;;5074499;28;20060;-84
2021/07/08 03:09:07;;;;;;;12.38;11.00;;;24.50;96.80;;;;;;5074600;28;20036;-84
2021/07/08 03:11:33;;;;;;;12.07;10.45;;;24.50;96.80;;;;;;5093184;28;20024;-84
2021/07/08 03:13:59;;;;;;;11.98;10.35;;;24.50;96.80;;;;;;5074793;28;20032;-84
2021/07/08 03:16:24;;;;;;;11.52;10.27;;;24.50;96.80;;;;;;5093156;28;20545;-84
2021/07/08 03:18:50;;;;;;;12.40;10.73;;;24.50;96.80;;;;;;5058266;28;20097;-84
2021/07/08 03:21:16;;;;;;;11.18;9.98;;;24.50;96.80;;;;;;5075078;28;20511;-84
2021/07/08 03:23:41;;;;;;;11.88;10.57;;;24.50;96.80;;;;;;5075060;28;20036;-84
2021/07/08 03:26:07;;;;;;;11.32;9.85;;;24.50;96.80;;;;;;5057391;28;20043;-84
2021/07/08 03:28:33;;;;;;;10.60;9.38;;;24.50;96.80;;;;;;5058080;28;20374;-84
2021/07/08 03:30:58;;;;;;;10.70;9.38;;;24.50;96.80;;;;;;5074684;28;20035;-84
2021/07/08 03:33:24;;;;;;;10.68;9.48;;;24.50;96.80;;;;;;5092688;28;20484;-84
2021/07/08 03:35:49;;;;;;;10.50;9.30;;;24.50;96.80;;;;;;5074559;28;20039;-84
2021/07/08 03:38:15;;;;;;;11.13;9.35;;;24.50;97.00;;;;;;5074439;28;20549;-84
2021/07/08 03:40:42;;;;;;;10.45;8.88;;;24.50;96.80;;;;;;5074663;28;20452;-83
2021/07/08 03:43:08;;;;;;;10.65;9.32;;;24.50;96.80;;;;;;5057876;28;20039;-84
2021/07/08 03:45:33;;;;;;;10.95;9.25;;;24.50;96.80;;;;;;5092572;28;20032;-84
2021/07/08 03:47:59;;;;;;;11.45;9.70;;;24.50;96.80;;;;;;5074344;28;20059;-84
2021/07/08 03:50:25;;;;;;;10.38;9.23;;;24.50;96.80;;;;;;5074807;28;20529;-84
2021/07/08 03:52:51;;;;;;;10.20;8.68;;;24.50;96.80;;;;;;5041351;28;20469;-84
2021/07/08 03:55:21;;;;;;;10.98;9.15;;;24.50;96.80;;;;;;5092373;28;20034;-84
2021/07/08 03:57:53;;;;;;;10.23;9.13;;;24.50;96.80;;;;;;5074944;28;20050;-84
2021/07/08 04:00:31;;;;;;;10.00;8.65;;;24.50;96.80;;;;;;5074797;28;20032;-84
2021/07/08 04:02:59;;;;;;;10.40;9.00;;;24.50;96.80;;;;;;5092260;28;20478;-84
2021/07/08 04:05:25;;;;;;;9.65;8.63;;;24.50;96.80;;;;;;5074106;28;20032;-84
2021/07/08 04:07:50;;;;;;;9.10;8.20;;;24.50;96.70;;;;;;5092777;28;20375;-83
2021/07/08 04:10:16;;;;;;;8.98;7.93;;;24.50;96.70;;;;;;5074124;28;20470;-83
2021/07/08 04:12:42;;;;;;;10.10;8.82;;;24.50;96.70;;;;;;5075644;28;20032;-83
2021/07/08 04:15:08;;;;;;;9.38;8.10;;;24.50;96.70;;;;;;5096080;28;20089;-84
2021/07/08 04:17:34;;;;;;;8.05;7.25;;;24.50;96.70;;;;;;5096697;28;20039;-84
2021/07/08 04:20:00;;;;;;;8.63;7.72;;;24.50;96.70;;;;;;5096251;28;20028;-84
2021/07/08 04:22:26;;;;;;;9.35;8.00;;;24.50;96.70;;;;;;5096048;28;20043;-84
2021/07/08 04:24:51;;;;;;;8.18;7.38;;;24.50;96.70;;;;;;5078151;28;20051;-83
2021/07/08 04:27:17;;;;;;;8.57;7.30;;;24.50;96.70;;;;;;5077952;28;20024;-84
2021/07/08 04:29:42;;;;;;;9.40;8.10;;;24.50;96.90;;;;;;5096242;28;20088;-84
2021/07/08 04:32:08;;;;;;;9.52;8.27;;;24.50;96.70;;;;;;5095906;28;20024;-84
2021/07/08 04:34:34;;;;;;;8.65;7.63;;;24.50;96.70;;;;;;5096090;28;20423;-84
2021/07/08 04:37:01;;;;;;;7.82;7.03;;;24.50;96.70;;;;;;5095761;28;20495;-84
2021/07/08 04:39:27;;;;;;;8.15;7.35;;;24.50;96.90;;;;;;5061666;28;20032;-84
2021/07/08 04:41:52;;;;;;;7.32;6.53;;;24.50;96.60;;;;;;5061137;28;20041;-85
2021/07/08 04:44:18;;;;;;;8.20;6.97;;;24.50;96.60;;;;;;5077548;28;20774;-85
2021/07/08 04:46:44;;;;;;;6.93;6.13;;;24.50;96.60;;;;;;5077327;28;20040;-85
2021/07/08 04:49:11;;;;;;;7.43;6.60;;;24.50;96.60;;;;;;5077573;28;20032;-84
2021/07/08 04:51:37;;;;;;;7.53;6.72;;;24.50;96.70;;;;;;5061153;28;20482;-85
2021/07/08 04:54:03;;;;;;;9.07;6.68;;;24.50;96.60;;;;;;5077091;28;20039;-85
2021/07/08 04:56:29;;;;;;;7.22;6.38;;;24.50;96.90;;;;;;5095747;28;20024;-84
2021/07/08 04:58:54;;;;;;;7.53;6.72;;;24.50;96.60;;;;;;5077300;28;20053;-85
2021/07/08 05:01:20;;;;;;;7.00;6.30;;;24.50;96.60;;;;;;5076915;28;20912;-85
2021/07/08 05:03:46;;;;;;;6.80;5.97;;;24.50;96.70;;;;;;5095552;28;20035;-85
2021/07/08 05:06:11;;;;;;;6.63;5.93;;;24.50;96.60;;;;;;5094711;28;20131;-85
2021/07/08 05:08:37;;;;;;;6.70;5.88;;;24.50;96.70;;;;;;5077480;28;20032;-86
2021/07/08 05:11:03;;;;;;;6.18;5.53;;;24.60;96.70;;;;;;5077151;28;20033;-87
2021/07/08 05:13:28;;;;;;;6.50;5.75;;;24.60;96.70;;;;;;5060390;28;20035;-83
2021/07/08 05:15:54;;;;;;;6.47;5.78;;;24.60;96.70;;;;;;5063217;28;20036;-83
2021/07/08 05:18:19;;;;;;;6.45;5.50;;;24.50;96.60;;;;;;5098663;28;20033;-83
2021/07/08 05:20:45;;;;;;;6.68;5.57;;;24.50;96.70;;;;;;5062892;28;20520;-84
2021/07/08 05:23:16;;;;;;;6.00;5.40;;;24.60;96.70;;;;;;5077065;28;20041;-83
2021/07/08 05:25:42;;;;;;;6.35;5.22;;;24.50;96.70;;;;;;5095125;28;20035;-84
2021/07/08 05:28:10;;;;;;;5.65;4.95;;;24.50;96.70;;;;;;5094264;28;20065;-84
2021/07/08 05:30:36;;;;;;;5.70;5.10;;;24.60;96.70;;;;;;5076651;28;20024;-85
2021/07/08 05:33:01;;;;;;;6.05;5.32;;;24.50;96.70;;;;;;5059991;28;20035;-85
2021/07/08 05:35:27;;;;;;;6.82;5.40;;;24.60;96.70;;;;;;5094382;28;20038;-85
2021/07/08 05:37:53;;;;;;;5.60;5.00;;;24.60;96.70;;;;;;5076649;28;20031;-85
2021/07/08 05:40:19;;;;;;;5.18;4.68;;;24.60;96.70;;;;;;5094206;28;20036;-85
2021/07/08 05:42:45;;;;;;;5.35;4.85;;;24.60;96.70;;;;;;5094257;28;20027;-84
2021/07/08 05:45:11;;;;;;;5.97;5.32;;;24.60;96.70;;;;;;5075843;28;20065;-85
2021/07/08 05:47:40;;;;;;;5.65;5.13;;;24.60;96.70;;;;;;5084650;28;20370;-84
2021/07/08 05:50:07;;;;;;;5.65;5.00;;;24.50;96.70;;;;;;5089915;28;20032;-85
2021/07/08 05:52:32;;;;;;;5.88;5.28;;;24.50;96.70;;;;;;5090848;28;20093;-85
2021/07/08 05:54:58;;;;;;;5.97;5.07;;;24.50;96.70;;;;;;5093019;28;20032;-85
2021/07/08 05:57:24;;;;;;;5.35;4.57;;;24.60;96.70;;;;;;5090074;28;20485;-85
2021/07/08 05:59:50;;;;;;;5.78;5.13;;;24.60;96.70;;;;;;5072532;28;20031;-84
2021/07/08 06:02:16;;;;;;;5.82;5.22;;;24.50;96.70;;;;;;5078000;28;20561;-84
2021/07/08 06:04:42;;;;;;;6.05;5.03;;;24.60;96.70;;;;;;5056843;28;20066;-84
2021/07/08 06:07:08;;;;;;;5.60;4.78;;;24.60;96.70;;;;;;5040075;28;20076;-84
2021/07/08 06:09:33;;;;;;;5.75;4.80;;;24.60;96.70;;;;;;5055924;28;20033;-85
2021/07/08 06:11:59;;;;;;;5.15;4.13;;;24.60;96.70;;;;;;5039297;28;20024;-84
2021/07/08 06:14:25;;;;;;;5.10;4.40;;;24.60;96.70;;;;;;5073474;28;20501;-85
2021/07/08 06:16:51;;;;;;;4.13;3.72;;;24.50;96.60;;;;;;5055842;28;20039;-84
2021/07/08 06:19:16;;;;;;;4.82;3.85;;;24.50;96.60;;;;;;5055527;28;20029;-84
2021/07/08 06:21:42;;;;;;;4.28;3.72;;;24.50;96.60;;;;;;5055666;28;20060;-84
2021/07/08 06:24:08;;;;;;;3.63;3.22;;;24.60;96.60;;;;;;5055564;28;20059;-84
2021/07/08 06:26:34;;;;;;;3.88;3.33;;;24.50;96.60;;;;;;5073080;28;20122;-85
2021/07/08 06:29:00;;;;;;;3.95;3.50;;;24.60;96.60;;;;;;5073530;28;20032;-84
2021/07/08 06:31:26;;;;;;;4.50;3.15;;;24.50;96.60;;;;;;5055125;28;20071;-84
2021/07/08 06:33:52;;;;;;;3.58;3.08;;;24.50;96.60;;;;;;5055334;28;20470;-84
2021/07/08 06:36:17;;;;;;;3.65;2.90;;;24.50;96.60;;;;;;5038107;28;20036;-84
2021/07/08 06:38:44;;;;;;;2.80;2.53;;;24.50;96.60;;;;;;5072994;28;20367;-85
2021/07/08 06:41:09;;;;;;;2.60;2.40;;;24.50;96.70;;;;;;5055296;28;20032;-84
2021/07/08 06:43:35;;;;;;;2.42;2.22;;;24.60;96.70;;;;;;5054896;28;20048;-84
2021/07/08 06:46:00;;;;;;;2.83;2.30;;;24.60;96.70;;;;;;5055370;28;20115;-84
2021/07/08 06:48:26;;;;;;;2.53;2.33;;;24.60;96.70;;;;;;5055086;28;20037;-84
2021/07/08 06:50:53;;;;;;;2.70;2.28;;;24.60;96.80;;;;;;5056728;28;20036;-84
2021/07/08 06:53:18;;;;;;;2.17;1.98;;;24.50;96.80;;;;;;5075083;28;20032;-85
2021/07/08 06:55:44;;;;;;;2.17;1.98;;;24.50;96.80;;;;;;5068912;28;20039;-84
2021/07/08 06:58:10;;;;;;;2.05;1.80;;;24.60;96.80;;;;;;5054971;28;20107;-84
2021/07/08 07:00:38;;;;;;;2.20;2.00;;;24.60;96.80;;;;;;5055230;28;20462;-85
2021/07/08 07:03:05;;;;;;;1.90;1.80;;;24.50;96.80;;;;;;5055190;28;20025;-84
2021/07/08 07:05:31;;;;;;;2.00;1.80;;;24.50;96.90;;;;;;5080494;28;20072;-85
2021/07/08 07:07:57;;;;;;;2.78;1.92;;;24.50;96.90;;;;;;5092870;28;20063;-85
2021/07/08 07:10:25;;;;;;;2.08;1.80;;;24.60;96.90;;;;;;5074754;28;20107;-85
2021/07/08 07:12:54;;;;;;;2.10;1.90;;;24.50;96.90;;;;;;5092862;28;20118;-86
2021/07/08 07:15:23;;;;;;;2.00;1.80;;;24.50;96.90;;;;;;5069451;28;20071;-87
2021/07/08 07:17:48;;;;;;;2.38;2.17;;;24.60;97.00;;;;;;5075296;28;20020;-84
2021/07/08 07:20:17;;;;;;;2.35;1.77;;;24.60;97.00;;;;;;5092751;28;20499;-83
2021/07/08 07:22:45;;;;;;;1.55;1.45;;;24.60;97.10;;;;;;5059699;28;20029;-84
2021/07/08 07:25:13;;;;;;;1.70;1.60;;;24.60;97.00;;;;;;5055079;28;20047;-84
2021/07/08 07:27:39;;;;;;;1.50;1.40;;;24.60;97.00;;;;;;5054605;28;20035;-84
2021/07/08 07:30:05;;;;;;;1.60;1.50;;;24.50;97.00;;;;;;5072622;28;20067;-84
2021/07/08 07:32:35;;;;;;;1.63;1.52;;;24.60;97.10;;;;;;5072421;28;20020;-84
2021/07/08 07:35:02;;;;;;;1.60;1.30;;;24.60;97.10;;;;;;5072572;28;20116;-83
2021/07/08 07:37:29;;;;;;;1.77;1.67;;;24.60;97.10;;;;;;5054584;28;20031;-83
2021/07/08 07:39:55;;;;;;;1.40;1.30;;;24.60;97.00;;;;;;5054971;28;20044;-82
2021/07/08 07:42:20;;;;;;;1.80;1.33;;;24.60;97.00;;;;;;5072753;28;20028;-83
2021/07/08 07:44:47;;;;;;;1.25;1.15;;;24.60;97.00;;;;;;5054593;28;20033;-82
2021/07/08 07:47:14;;;;;;;1.20;1.10;;;24.60;97.00;;;;;;5054966;28;20035;-83
2021/07/08 07:49:43;;;;;;;1.10;1.00;;;24.60;97.00;;;;;;5058371;28;20032;-83
2021/07/08 07:52:12;;;;;;;1.30;1.20;;;24.60;96.90;;;;;;5059116;28;20029;-84
2021/07/08 07:54:37;;;;;;;1.20;1.10;;;24.60;96.90;;;;;;5076366;28;20024;-82
2021/07/08 07:57:05;;;;;;;1.20;1.10;;;24.60;96.80;;;;;;5058676;28;20374;-83
2021/07/08 07:59:37;;;;;;;1.88;1.55;;;24.60;96.80;;;;;;5081839;28;20024;-84
2021/07/08 08:02:09;;;;;;;1.60;1.50;;;24.60;96.70;;;;;;5096286;28;20077;-83
2021/07/08 08:04:41;;;;;;;1.40;1.30;;;24.60;96.60;;;;;;5095033;28;20469;-84
2021/07/08 08:09:50;;;;;;;1.40;1.30;;;24.60;96.50;;;;;;5101691;28;20554;-84
2021/07/08 08:12:16;;;;;;;1.20;1.10;;;24.60;96.50;;;;;;5094880;28;20050;-83
2021/07/08 08:14:42;;;;;;;1.40;1.30;;;24.60;96.50;;;;;;5094332;28;20078;-83
2021/07/08 08:17:07;;;;;;;1.35;1.20;;;24.60;96.40;;;;;;5095060;28;20039;-83
2021/07/08 08:19:33;;;;;;;1.55;1.45;;;24.60;96.40;;;;;;5095604;28;20386;-84
2021/07/08 08:21:59;;;;;;;1.80;1.48;;;24.60;96.40;;;;;;5093283;28;20024;-83
2021/07/08 08:24:24;;;;;;;1.65;1.55;;;24.60;96.40;;;;;;5094558;28;20461;-83
2021/07/08 08:26:53;;;;;;;1.40;1.30;;;24.60;96.40;;;;;;5088393;28;20462;-83
2021/07/08 08:29:20;;;;;;;1.50;1.40;;;24.60;96.40;;;;;;5061306;28;20077;-83
2021/07/08 08:31:46;;;;;;;1.75;1.50;;;24.60;96.40;;;;;;5057296;28;20028;-83
2021/07/08 08:34:12;;;;;;;1.60;1.48;;;24.60;96.50;;;;;;5041085;28;20032;-83
2021/07/08 08:36:38;;;;;;;1.60;1.50;;;24.70;96.50;;;;;;5040542;28;20033;-83
2021/07/08 08:39:04;;;;;;;1.80;1.70;;;24.70;96.50;;;;;;5091351;28;20030;-82
2021/07/08 08:41:33;;;;;;;1.73;1.60;;;24.70;96.50;;;;;;5060290;28;20051;-84
2021/07/08 08:43:58;;;;;;;2.00;1.80;;;24.80;96.40;;;;;;5054911;28;20106;-84
2021/07/08 08:46:24;;;;;;;2.08;1.88;;;24.80;96.40;;;;;;5040763;28;20050;-84
2021/07/08 08:48:50;;;;;;;2.28;1.75;;;24.80;96.40;;;;;;5069973;28;20032;-85
2021/07/08 08:51:17;;;;;;;2.58;2.10;;;24.80;96.30;;;;;;5092971;28;20036;-84
2021/07/08 08:53:43;;;;;;;2.92;2.10;;;24.90;96.30;;;;;;5081442;28;20031;-85
2021/07/08 08:56:09;;;;;;;2.17;1.73;;;24.90;96.30;;;;;;5076603;28;20028;-84
2021/07/08 08:58:36;;;;;;;2.38;2.10;;;25.00;96.20;;;;;;5094737;28;20024;-85
2021/07/08 09:01:05;;;;;;;2.03;1.83;;;25.00;96.20;;;;;;5095341;28;20028;-85
2021/07/08 09:03:34;;;;;;;2.58;2.22;;;25.00;96.20;;;;;;5077000;28;20496;-84
2021/07/08 09:06:08;;;;;;;2.45;1.70;;;25.00;96.10;;;;;;5094570;28;20524;-85
2021/07/08 09:08:35;;;;;;;1.60;1.50;;;25.00;96.10;;;;;;5095135;28;20036;-87
2021/07/08 09:11:01;;;;;;;2.05;1.70;;;25.00;96.10;;;;;;5076616;28;20119;-84
2021/07/08 09:13:27;;;;;;;1.90;1.80;;;25.00;96.10;;;;;;5077069;28;20028;-84
2021/07/08 09:15:53;;;;;;;2.88;2.00;;;25.00;96.20;;;;;;5076524;28;20039;-84
2021/07/08 09:18:25;;;;;;;1.63;1.45;;;25.00;96.20;;;;;;5060154;28;20028;-85
2021/07/08 09:20:50;;;;;;;1.55;1.45;;;25.00;96.20;;;;;;5057141;28;20029;-85
2021/07/08 09:23:18;;;;;;;1.50;1.40;;;25.00;96.30;;;;;;5076572;28;20032;-85
2021/07/08 09:25:46;;;;;;;1.70;1.50;;;25.00;96.30;;;;;;5056597;28;20036;-84
2021/07/08 09:28:21;;;;;;;1.13;1.02;;;25.00;96.30;;;;;;5074393;28;20186;-84
2021/07/08 09:30:56;;;;;;;1.20;1.10;;;25.00;96.30;;;;;;5075585;28;20023;-84
2021/07/08 09:33:35;;;;;;;1.40;1.30;;;25.00;96.40;;;;;;5076702;28;20028;-84
2021/07/08 09:36:12;;;;;;;1.48;1.30;;;25.00;96.40;;;;;;5094375;28;20039;-84
2021/07/08 09:38:43;;;;;;;1.38;1.27;;;24.90;96.40;;;;;;5076498;28;20028;-84
2021/07/08 09:41:25;;;;;;;1.10;1.00;;;24.90;96.40;;;;;;5076399;28;20032;-84
2021/07/08 09:43:50;;;;;;;1.30;1.20;;;24.90;96.50;;;;;;5060247;28;20032;-84
2021/07/08 09:46:16;;;;;;;0.90;0.90;;;24.90;96.50;;;;;;5065581;28;20580;-84
2021/07/08 09:49:19;;;;;;;0.90;0.90;;;24.90;96.50;;;;;;5055885;28;20036;-85
2021/07/08 09:51:46;;;;;;;1.10;1.00;;;24.90;96.50;;;;;;5073991;28;20462;-85
2021/07/08 09:54:25;;;;;;;1.13;1.00;;;24.90;96.50;;;;;;5074036;28;20119;-85
2021/07/08 09:56:54;;;;;;;1.25;0.90;;;24.80;96.50;;;;;;5055564;28;20382;-85
2021/07/08 09:59:21;;;;;;;1.20;1.10;;;24.80;96.60;;;;;;5055706;28;20046;-86
2021/07/08 10:01:58;;;;;;;1.15;1.05;;;24.80;96.60;;;;;;5073528;28;20081;-84
2021/07/08 10:04:24;;;;;;;1.20;1.10;;;24.90;96.70;;;;;;5038946;28;20035;-84
2021/07/08 10:06:51;;;;;;;1.10;1.00;;;24.80;96.60;;;;;;5051887;28;20494;-84
2021/07/08 10:09:19;;;;;;;1.15;0.90;;;24.80;96.70;;;;;;5035758;28;20025;-85
2021/07/08 10:11:49;;;;;;;1.25;1.00;;;24.90;96.70;;;;;;5051692;28;20025;-86
2021/07/08 10:14:17;;;;;;;1.05;0.95;;;24.90;96.70;;;;;;5052666;28;20116;-85
2021/07/08 10:16:54;;;;;;;1.08;0.88;;;24.80;96.70;;;;;;5052387;28;20085;-86
2021/07/08 10:19:22;;;;;;;1.05;0.95;;;24.90;96.70;;;;;;5058171;28;20029;-86
2021/07/08 10:21:49;;;;;;;0.98;0.98;;;24.90;96.80;;;;;;5067010;28;20024;-86
2021/07/08 10:24:16;;;;;;;1.00;0.90;;;24.90;96.80;;;;;;5072392;28;20028;-86
2021/07/08 10:26:43;;;;;;;0.88;0.88;;;24.90;96.90;;;;;;5056272;28;20028;-86
2021/07/08 10:29:11;;;;;;;1.20;1.10;;;24.90;96.90;;;;;;5056147;28;20032;-84
2021/07/08 10:31:39;;;;;;;1.08;0.98;;;24.90;96.90;;;;;;5077376;28;20550;-84
2021/07/08 10:34:08;;;;;;;1.25;1.15;;;24.90;96.90;;;;;;5074998;28;20040;-81
2021/07/08 10:36:34;;;;;;;1.00;0.90;;;24.90;97.00;;;;;;5071836;28;20385;-84
2021/07/08 10:39:09;;;;;;;1.00;0.90;;;24.90;97.00;;;;;;5072037;28;20029;-84
2021/07/08 10:41:35;;;;;;;1.00;1.00;;;24.90;97.00;;;;;;5073373;28;20052;-84
2021/07/08 10:44:00;;;;;;;0.98;0.88;;;24.90;97.00;;;;;;5072770;28;20055;-84
2021/07/08 10:46:37;;;;;;;1.00;1.00;;;24.90;97.00;;;;;;5072206;28;20043;-84
2021/07/08 10:49:14;;;;;;;1.30;1.20;;;24.90;97.00;;;;;;5071643;28;20432;-84
2021/07/08 10:51:44;;;;;;;1.00;0.93;;;24.90;97.00;;;;;;5073304;28;20040;-85
2021/07/08 10:54:28;;;;;;;1.55;1.30;;;24.90;97.00;;;;;;5072890;28;20028;-83
2021/07/08 10:56:57;;;;;;;1.77;1.13;;;25.00;97.00;;;;;;5071744;28;20029;-84
2021/07/08 10:59:35;;;;;;;0.90;0.90;;;24.90;97.00;;;;;;5073137;28;20082;-85
2021/07/08 11:02:01;;;;;;;1.27;1.17;;;24.90;97.00;;;;;;5072728;28;20048;-84
2021/07/08 11:04:50;;;;;;;1.10;1.00;;;24.90;97.00;;;;;;5071829;28;20454;-84
2021/07/08 11:07:21;;;;;;;1.15;1.08;;;24.90;97.00;;;;;;5071678;28;20056;-83
2021/07/08 11:10:06;;;;;;;0.93;0.93;;;24.90;97.00;;;;;;5072935;28;20488;-83
2021/07/08 11:12:36;;;;;;;1.48;1.38;;;25.00;97.00;;;;;;5073372;28;20103;-84
2021/07/08 11:15:04;;;;;;;1.13;1.02;;;24.90;97.00;;;;;;5072091;28;20032;-84
2021/07/08 11:17:41;;;;;;;1.23;1.08;;;24.90;97.00;;;;;;5073697;28;20104;-84
2021/07/08 11:20:32;;;;;;;1.15;1.10;;;24.90;97.00;;;;;;5073045;28;20031;-85
2021/07/08 11:23:36;;;;;;;1.20;1.10;;;24.90;97.00;;;;;;5075222;28;20028;-85
2021/07/08 11:26:02;;;;;;;1.33;1.23;;;24.90;97.00;;;;;;5075826;28;20040;-84
2021/07/08 11:28:33;;;;;;;1.52;1.40;;;24.90;97.00;;;;;;5075723;28;20029;-84
2021/07/08 11:31:04;;;;;;;1.60;1.50;;;25.00;97.10;;;;;;5075538;28;20079;-83
2021/07/08 11:33:32;;;;;;;1.20;1.10;;;24.90;97.00;;;;;;5076263;28;20033;-83
2021/07/08 11:36:02;;;;;;;1.42;1.00;;;25.00;97.10;;;;;;5076047;28;20363;-84
2021/07/08 11:38:31;;;;;;;1.13;1.02;;;25.00;97.10;;;;;;5077740;28;20029;-85
2021/07/08 11:40:57;;;;;;;1.10;1.00;;;25.00;97.00;;;;;;5077239;28;20032;-84
2021/07/08 11:43:33;;;;;;;1.20;1.10;;;25.00;97.00;;;;;;5075521;28;20082;-83
2021/07/08 11:46:05;;;;;;;1.20;1.00;;;25.00;97.00;;;;;;5076685;28;20086;-84
2021/07/08 11:48:33;;;;;;;1.40;1.30;;;25.00;97.00;;;;;;5077342;28;20028;-85
2021/07/08 11:51:01;;;;;;;1.30;1.20;;;24.90;96.90;;;;;;5076613;28;20086;-83
2021/07/08 11:53:26;;;;;;;1.00;1.00;;;25.00;96.90;;;;;;5075588;28;20043;-82
2021/07/08 11:55:58;;;;;;;1.10;1.00;;;25.00;96.90;;;;;;5075747;28;20040;-83
2021/07/08 11:58:29;;;;;;;1.23;1.13;;;25.00;96.90;;;;;;5076861;28;20099;-83
2021/07/08 12:00:57;;;;;;;1.38;1.20;;;25.00;96.90;;;;;;5075300;28;20032;-83
2021/07/08 12:03:24;;;;;;;0.90;0.90;;;25.00;96.90;;;;;;5076430;28;20086;-85
2021/07/08 12:06:03;;;;;;;1.20;1.10;;;25.00;96.90;;;;;;5074594;28;20056;-83
2021/07/08 12:08:38;;;;;;;2.10;1.10;;;25.00;96.90;;;;;;5060113;28;20064;-86
2021/07/08 12:11:15;;;;;;;1.30;1.20;;;25.00;96.90;;;;;;5074580;28;20028;-86
2021/07/08 12:13:48;;;;;;;1.30;1.20;;;25.00;97.00;;;;;;5074927;28;20029;-84
2021/07/08 12:16:15;;;;;;;2.92;1.40;;;25.00;97.00;;;;;;5074841;28;20101;-84
2021/07/08 12:18:49;;;;;;;1.13;1.05;;;25.00;97.00;;;;;;5075140;28;20032;-84
2021/07/08 12:21:18;;;;;;;1.30;1.20;;;25.00;97.10;;;;;;5075075;28;20025;-86
2021/07/08 12:23:43;;;;;;;2.22;1.45;;;25.00;97.10;;;;;;5067956;28;20550;-85
2021/07/08 12:26:32;;;;;;;1.40;1.30;;;25.00;97.10;;;;;;5038575;28;20102;-86
2021/07/08 12:29:18;;;;;;;1.40;1.30;;;25.00;97.10;;;;;;5055072;28;20463;-86
2021/07/08 12:31:53;;;;;;;1.15;1.02;;;25.00;97.10;;;;;;5056969;28;20036;-86
2021/07/08 12:34:22;;;;;;;1.05;0.95;;;25.00;97.10;;;;;;5054658;28;20025;-84
2021/07/08 12:36:48;;;;;;;1.30;1.20;;;25.00;97.10;;;;;;5054529;28;20420;-84
2021/07/08 12:39:17;;;;;;;1.40;1.30;;;25.00;97.10;;;;;;5055587;28;20037;-85
2021/07/08 12:41:47;;;;;;;1.48;1.15;;;25.00;97.10;;;;;;5065071;28;20033;-85
2021/07/08 12:44:14;;;;;;;1.20;1.10;;;25.00;97.10;;;;;;5077532;28;20504;-85
2021/07/08 12:46:40;;;;;;;1.45;1.35;;;25.00;97.20;;;;;;5077583;28;20036;-85